Terminal Aerodrome Forecast
Issued by NWS Shreveport, LA

Home | Current Version | Previous Version | Text Only | Print | Product List | Glossary On
Versions: 1 2 3 4 5 6 7 8 9 10 11 12 13 14 15 16 17 18 19 20 21
000
FTUS44 KSHV 190532
TAFLFK
TAF
KLFK 190532Z 1906/2006 VRB03KT P6SM VCTS SCT040CB SCT100 OVC250
      TEMPO 1906/1910 VRB15G30KT 2SM TSRA BR OVC025CB
     FM191400 19006KT P6SM SCT015 SCT140 SCT250
     FM191600 21010G16KT P6SM SCT030
     FM191900 21012G20KT P6SM SCT040
     FM200000 22010G18KT P6SM VCTS BKN040CB=

USA.gov is the U.S. government's official web portal to all federal, state and local government web resources and services.